Petawawa Airport
CYWA : rendu visible

Aérodrome :











RETROUVEZ-NOUS SUR...

 
LOGIN :

S'inscrire | Disclaimer

   EN    FR    IT 

 









Légende :    VFR   VFR Marginal   IFR   IFR Intensif   IFR Très Intensif
Visi : 
Plafond : 
>= 8 km
>= 3000ft
5 à 8 km
1000 à 3000 ft
1500m à 5 km
500 à 1000 ft
800 à 1500m
200 à 500 ft
< 800m
< 200 ft
Symboles :   Orages  Brouillard  Fortes neiges  Fortes précipitations  Vent > 20 kt






- Altitude de l'aérodrome : 427 ft
- Code IATA : YWA


CYWA - Petawawa

DERNIER METAR :
  • 200400Z AUTO 00000KT 9SM BKN082 M02/M03 A2992 RMK SLP140

METARs EXPIRÉS :
  • 200319Z AUTO 29003KT 9SM FEW021 SCT082 M01/M03 A2992
  • 200300Z AUTO 28003KT 9SM BKN021 M01/M02 A2992 RMK SLP140
  • 200225Z AUTO 00000KT 9SM OVC023 OVC036 OVC096 M02/M03 A2992
  • 200200Z AUTO 00000KT 9SM FEW025 SCT036 OVC094 M01/M03 A2992 RMK SLP139
  • 200132Z AUTO 00000KT 9SM FEW036 OVC092 00/M02 A2991
  • 200124Z AUTO 25002KT 9SM -SN OVC092 M00/M02 A2991

TAF TAF CYWA
Valide du 20 à 00h jusqu'au 20 à 12h UTC


192330Z 2000/2012 VRB03KT P6SM FEW020 BKN080
TEMPO 2000/2012 BKN020 OVC040 RMK FCST BASED ON AUTO OBS. NXT FCST BY 200600Z



MET'MAP, la Météo Aéronautique d'un coup d'oeil ! - Copyright ORBIFLY Décembre 2007 - Disclaimer

ORBIFLY MET'MAP TEAM :

Programmation & Développement : Alexandra Zaïnal
Conception & Développement : Baudouin d'Aumeries
Co-Programmation & Développement : Marc-Olivier Méhu
Soutien technique & logistique : Manuel Goepfert

Contact : metmap@orbifly.com




SOURCES & CREDITS :

   NOAA       Earth
Advisory